Aviation Digital Data Service (ADDS)

Output produced by METARs form (0325 UTC 19 August 2019)
found at http://www.aviationweather.gov/metar/data/
 
METAR text: UGKO 190300Z 06003KT 8000 BKN033 22/22 Q1014 NOSIG
Conditions at: UGKO (KOPITNARI , GE) observed 0300 UTC 19 August 2019
Temperature: 22.0°C (72°F)
Dewpoint: 22.0°C (72°F) [RH = 100%]
Pressure (altimeter): 29.94 inches Hg (1014.0 mb)
Winds: from the ENE (60 degrees) at 3 MPH (3 knots; 1.5 m/s)
Visibility: 5 miles ( 8 km)
Ceiling: 3300 feet AGL
Clouds: broken clouds at 3300 feet AGL
Weather: no significant weather observed at this time

METAR text: UGKO 190230Z VRB02KT 5000 BR BKN030 22/22 Q1013 NOSIG
Conditions at: UGKO (KOPITNARI , GE) observed 0230 UTC 19 August 2019
Temperature: 22.0°C (72°F)
Dewpoint: 22.0°C (72°F) [RH = 100%]
Pressure (altimeter): 29.91 inches Hg (1013.0 mb)
Winds: variable direction winds at 2 MPH (2 knots; 1.0 m/s)
Visibility: 3 miles ( 5 km)
Ceiling: 3000 feet AGL
Clouds: broken clouds at 3000 feet AGL
Weather: BR  (mist)

METAR text: UGKO 190200Z VRB02KT 5000 BR BKN013 22/22 Q1013 NOSIG
Conditions at: UGKO (KOPITNARI , GE) observed 0200 UTC 19 August 2019
Temperature: 22.0°C (72°F)
Dewpoint: 22.0°C (72°F) [RH = 100%]
Pressure (altimeter): 29.91 inches Hg (1013.0 mb)
Winds: variable direction winds at 2 MPH (2 knots; 1.0 m/s)
Visibility: 3 miles ( 5 km)
Ceiling: 1300 feet AGL
Clouds: broken clouds at 1300 feet AGL
Weather: BR  (mist)

METAR text: UGKO 190130Z VRB01KT 6000 BKN012 22/22 Q1013 NOSIG
Conditions at: UGKO (KOPITNARI , GE) observed 0130 UTC 19 August 2019
Temperature: 22.0°C (72°F)
Dewpoint: 22.0°C (72°F) [RH = 100%]
Pressure (altimeter): 29.91 inches Hg (1013.0 mb)
Winds: variable direction winds at 1 MPH (1 knots; 0.5 m/s)
Visibility: 4 miles ( 6 km)
Ceiling: 1200 feet AGL
Clouds: broken clouds at 1200 feet AGL
Weather: no significant weather observed at this time

METAR text: UGKO 190100Z VRB01KT 8000 BKN021 22/22 Q1012 NOSIG
Conditions at: UGKO (KOPITNARI , GE) observed 0100 UTC 19 August 2019
Temperature: 22.0°C (72°F)
Dewpoint: 22.0°C (72°F) [RH = 100%]
Pressure (altimeter): 29.88 inches Hg (1012.0 mb)
Winds: variable direction winds at 1 MPH (1 knots; 0.5 m/s)
Visibility: 5 miles ( 8 km)
Ceiling: 2100 feet AGL
Clouds: broken clouds at 2100 feet AGL
Weather: no significant weather observed at this time

METAR text: UGKO 190030Z 01004KT 8000 BKN034 22/22 Q1012 NOSIG
Conditions at: UGKO (KOPITNARI , GE) observed 0030 UTC 19 August 2019
Temperature: 22.0°C (72°F)
Dewpoint: 22.0°C (72°F) [RH = 100%]
Pressure (altimeter): 29.88 inches Hg (1012.0 mb)
Winds: from the N (10 degrees) at 5 MPH (4 knots; 2.1 m/s)
Visibility: 5 miles ( 8 km)
Ceiling: 3400 feet AGL
Clouds: broken clouds at 3400 feet AGL
Weather: no significant weather observed at this time

METAR text: UGKO 190000Z 03002KT 4000 BR BKN036 21/21 Q1012 NOSIG
Conditions at: UGKO (KOPITNARI , GE) observed 0000 UTC 19 August 2019
Temperature: 21.0°C (70°F)
Dewpoint: 21.0°C (70°F) [RH = 100%]
Pressure (altimeter): 29.88 inches Hg (1012.0 mb)
Winds: from the NNE (30 degrees) at 2 MPH (2 knots; 1.0 m/s)
Visibility: 2.49 miles (4.01 km)
Ceiling: 3600 feet AGL
Clouds: broken clouds at 3600 feet AGL
Weather: BR  (mist)

METAR text: UGKO 182330Z 12002KT 2500 BR SCT022 21/21 Q1012 NOSIG
Conditions at: UGKO (KOPITNARI , GE) observed 2330 UTC 18 August 2019
Temperature: 21.0°C (70°F)
Dewpoint: 21.0°C (70°F) [RH = 100%]
Pressure (altimeter): 29.88 inches Hg (1012.0 mb)
Winds: from the ESE (120 degrees) at 2 MPH (2 knots; 1.0 m/s)
Visibility: 1.55 miles (2.49 km)
Ceiling: at least 12,000 feet AGL
Clouds: scattered clouds at 2200 feet AGL
Weather: BR  (mist)

METAR text: UGKO 182300Z 15003KT 2300 BR SCT034 21/21 Q1012 NOSIG
Conditions at: UGKO (KOPITNARI , GE) observed 2300 UTC 18 August 2019
Temperature: 21.0°C (70°F)
Dewpoint: 21.0°C (70°F) [RH = 100%]
Pressure (altimeter): 29.88 inches Hg (1012.0 mb)
Winds: from the SSE (150 degrees) at 3 MPH (3 knots; 1.5 m/s)
Visibility: 1.43 miles (2.30 km)
Ceiling: at least 12,000 feet AGL
Clouds: scattered clouds at 3400 feet AGL
Weather: BR  (mist)

METAR text: UGKO 182230Z 16002KT 8000 SCT034 22/22 Q1012 NOSIG
Conditions at: UGKO (KOPITNARI , GE) observed 2230 UTC 18 August 2019
Temperature: 22.0°C (72°F)
Dewpoint: 22.0°C (72°F) [RH = 100%]
Pressure (altimeter): 29.88 inches Hg (1012.0 mb)
Winds: from the SSE (160 degrees) at 2 MPH (2 knots; 1.0 m/s)
Visibility: 5 miles ( 8 km)
Ceiling: at least 12,000 feet AGL
Clouds: scattered clouds at 3400 feet AGL
Weather: no significant weather observed at this time

METAR text: UGKO 182200Z 11003KT 9000 BKN043 22/22 Q1012 NOSIG
Conditions at: UGKO (KOPITNARI , GE) observed 2200 UTC 18 August 2019
Temperature: 22.0°C (72°F)
Dewpoint: 22.0°C (72°F) [RH = 100%]
Pressure (altimeter): 29.88 inches Hg (1012.0 mb)
Winds: from the ESE (110 degrees) at 3 MPH (3 knots; 1.5 m/s)
Visibility: 6 miles ( 9 km)
Ceiling: 4300 feet AGL
Clouds: broken clouds at 4300 feet AGL
Weather: no significant weather observed at this time

METAR text: UGKO 182130Z 09002KT 9000 BKN045 22/22 Q1012 R25/19//60 NOSIG
Conditions at: UGKO (KOPITNARI , GE) observed 2130 UTC 18 August 2019
Temperature: 22.0°C (72°F)
Dewpoint: 22.0°C (72°F) [RH = 100%]
Pressure (altimeter): 29.88 inches Hg (1012.0 mb)
Winds: from the E (90 degrees) at 2 MPH (2 knots; 1.0 m/s)
Visibility: 6 miles ( 9 km)
Ceiling: 4500 feet AGL
Clouds: broken clouds at 4500 feet AGL
Weather: no significant weather observed at this time

METAR text: UGKO 182100Z VRB02KT 9999 BKN046 22/22 Q1013 R25/19//60 NOSIG
Conditions at: UGKO (KOPITNARI , GE) observed 2100 UTC 18 August 2019
Temperature: 22.0°C (72°F)
Dewpoint: 22.0°C (72°F) [RH = 100%]
Pressure (altimeter): 29.91 inches Hg (1013.0 mb)
Winds: variable direction winds at 2 MPH (2 knots; 1.0 m/s)
Visibility: 6 or more miles (10+ km)
Ceiling: 4600 feet AGL
Clouds: broken clouds at 4600 feet AGL
Weather: no significant weather observed at this time

METAR text: UGKO 182030Z VRB02KT 8000 BKN044 22/22 Q1013 R25/19//60 NOSIG
Conditions at: UGKO (KOPITNARI , GE) observed 2030 UTC 18 August 2019
Temperature: 22.0°C (72°F)
Dewpoint: 22.0°C (72°F) [RH = 100%]
Pressure (altimeter): 29.91 inches Hg (1013.0 mb)
Winds: variable direction winds at 2 MPH (2 knots; 1.0 m/s)
Visibility: 5 miles ( 8 km)
Ceiling: 4400 feet AGL
Clouds: broken clouds at 4400 feet AGL
Weather: no significant weather observed at this time

METAR text: UGKO 182000Z VRB02KT 9999 BKN037 22/22 Q1013 R25/19//60 NOSIG
Conditions at: UGKO (KOPITNARI , GE) observed 2000 UTC 18 August 2019
Temperature: 22.0°C (72°F)
Dewpoint: 22.0°C (72°F) [RH = 100%]
Pressure (altimeter): 29.91 inches Hg (1013.0 mb)
Winds: variable direction winds at 2 MPH (2 knots; 1.0 m/s)
Visibility: 6 or more miles (10+ km)
Ceiling: 3700 feet AGL
Clouds: broken clouds at 3700 feet AGL
Weather: no significant weather observed at this time

METAR text: UGKO 181930Z VRB02KT 9999 BKN047CB 22/22 Q1013 R25/19//60 NOSIG
Conditions at: UGKO (KOPITNARI , GE) observed 1930 UTC 18 August 2019
Temperature: 22.0°C (72°F)
Dewpoint: 22.0°C (72°F) [RH = 100%]
Pressure (altimeter): 29.91 inches Hg (1013.0 mb)
Winds: variable direction winds at 2 MPH (2 knots; 1.0 m/s)
Visibility: 6 or more miles (10+ km)
Ceiling: 4700 feet AGL
Clouds: broken clouds at 4700 feet AGL
Weather: no significant weather observed at this time

METAR text: UGKO 181900Z VRB02KT 9999 BKN037CB 22/22 Q1012 R25/19//60 NOSIG
Conditions at: UGKO (KOPITNARI , GE) observed 1900 UTC 18 August 2019
Temperature: 22.0°C (72°F)
Dewpoint: 22.0°C (72°F) [RH = 100%]
Pressure (altimeter): 29.88 inches Hg (1012.0 mb)
Winds: variable direction winds at 2 MPH (2 knots; 1.0 m/s)
Visibility: 6 or more miles (10+ km)
Ceiling: 3700 feet AGL
Clouds: broken clouds at 3700 feet AGL
Weather: no significant weather observed at this time

METAR text: UGKO 181830Z 26002KT 9999 BKN036 23/22 Q1012 R25/19//60 NOSIG
Conditions at: UGKO (KOPITNARI , GE) observed 1830 UTC 18 August 2019
Temperature: 23.0°C (73°F)
Dewpoint: 22.0°C (72°F) [RH = 94%]
Pressure (altimeter): 29.88 inches Hg (1012.0 mb)
Winds: from the W (260 degrees) at 2 MPH (2 knots; 1.0 m/s)
Visibility: 6 or more miles (10+ km)
Ceiling: 3600 feet AGL
Clouds: broken clouds at 3600 feet AGL
Weather: no significant weather observed at this time

METAR text: UGKO 181800Z 33002KT 9999 BKN032CB 23/23 Q1012 R25/19//60 NOSIG
Conditions at: UGKO (KOPITNARI , GE) observed 1800 UTC 18 August 2019
Temperature: 23.0°C (73°F)
Dewpoint: 23.0°C (73°F) [RH = 100%]
Pressure (altimeter): 29.88 inches Hg (1012.0 mb)
Winds: from the NNW (330 degrees) at 2 MPH (2 knots; 1.0 m/s)
Visibility: 6 or more miles (10+ km)
Ceiling: 3200 feet AGL
Clouds: broken clouds at 3200 feet AGL
Weather: no significant weather observed at this time

METAR text: UGKO 181730Z VRB02KT 9999 BKN046 22/22 Q1012 R25/19//60 NOSIG
Conditions at: UGKO (KOPITNARI , GE) observed 1730 UTC 18 August 2019
Temperature: 22.0°C (72°F)
Dewpoint: 22.0°C (72°F) [RH = 100%]
Pressure (altimeter): 29.88 inches Hg (1012.0 mb)
Winds: variable direction winds at 2 MPH (2 knots; 1.0 m/s)
Visibility: 6 or more miles (10+ km)
Ceiling: 4600 feet AGL
Clouds: broken clouds at 4600 feet AGL
Weather: no significant weather observed at this time

METAR text: UGKO 181700Z 30005KT 9999 BKN031CB 22/22 Q1012 R25/19//60 NOSIG
Conditions at: UGKO (KOPITNARI , GE) observed 1700 UTC 18 August 2019
Temperature: 22.0°C (72°F)
Dewpoint: 22.0°C (72°F) [RH = 100%]
Pressure (altimeter): 29.88 inches Hg (1012.0 mb)
Winds: from the WNW (300 degrees) at 6 MPH (5 knots; 2.6 m/s)
Visibility: 6 or more miles (10+ km)
Ceiling: 3100 feet AGL
Clouds: broken clouds at 3100 feet AGL
Weather: no significant weather observed at this time

METAR text: UGKO 181630Z 25004KT 9999 SCT034CB 23/22 Q1011 R25/19//60 NOSIG
Conditions at: UGKO (KOPITNARI , GE) observed 1630 UTC 18 August 2019
Temperature: 23.0°C (73°F)
Dewpoint: 22.0°C (72°F) [RH = 94%]
Pressure (altimeter): 29.85 inches Hg (1011.0 mb)
Winds: from the WSW (250 degrees) at 5 MPH (4 knots; 2.1 m/s)
Visibility: 6 or more miles (10+ km)
Ceiling: at least 12,000 feet AGL
Clouds: scattered clouds at 3400 feet AGL
Weather: no significant weather observed at this time

METAR text: UGKO 181600Z 23007KT 9999 TSRA BKN038CB 23/22 Q1011 R25/19//60 NOSIG
Conditions at: UGKO (KOPITNARI , GE) observed 1600 UTC 18 August 2019
Temperature: 23.0°C (73°F)
Dewpoint: 22.0°C (72°F) [RH = 94%]
Pressure (altimeter): 29.85 inches Hg (1011.0 mb)
Winds: from the SW (230 degrees) at 8 MPH (7 knots; 3.6 m/s)
Visibility: 6 or more miles (10+ km)
Ceiling: 3800 feet AGL
Clouds: broken clouds at 3800 feet AGL
Weather: TSRA  (rain associated with thunderstorm(s))

METAR text: UGKO 181530Z 23007KT 9999 TS BKN038CB 24/23 Q1012 R25/19//60 NOSIG
Conditions at: UGKO (KOPITNARI , GE) observed 1530 UTC 18 August 2019
Temperature: 24.0°C (75°F)
Dewpoint: 23.0°C (73°F) [RH = 94%]
Pressure (altimeter): 29.88 inches Hg (1012.0 mb)
Winds: from the SW (230 degrees) at 8 MPH (7 knots; 3.6 m/s)
Visibility: 6 or more miles (10+ km)
Ceiling: 3800 feet AGL
Clouds: broken clouds at 3800 feet AGL
Weather: TS  (thunderstorm)

METAR text: UGKO 181500Z 23007KT 9999 TS BKN044CB 24/23 Q1011 R25/29//50 NOSIG
Conditions at: UGKO (KOPITNARI , GE) observed 1500 UTC 18 August 2019
Temperature: 24.0°C (75°F)
Dewpoint: 23.0°C (73°F) [RH = 94%]
Pressure (altimeter): 29.85 inches Hg (1011.0 mb)
Winds: from the SW (230 degrees) at 8 MPH (7 knots; 3.6 m/s)
Visibility: 6 or more miles (10+ km)
Ceiling: 4400 feet AGL
Clouds: broken clouds at 4400 feet AGL
Weather: TS  (thunderstorm)

METAR text: UGKO 181430Z 23007KT 9999 TSRA BKN035CB 24/23 Q1010 R25/29//50 NOSIG
Conditions at: UGKO (KOPITNARI , GE) observed 1430 UTC 18 August 2019
Temperature: 24.0°C (75°F)
Dewpoint: 23.0°C (73°F) [RH = 94%]
Pressure (altimeter): 29.82 inches Hg (1010.0 mb)
Winds: from the SW (230 degrees) at 8 MPH (7 knots; 3.6 m/s)
Visibility: 6 or more miles (10+ km)
Ceiling: 3500 feet AGL
Clouds: broken clouds at 3500 feet AGL
Weather: TSRA  (rain associated with thunderstorm(s))

METAR text: UGKO 181400Z 26009KT 230V300 9999 TS BKN044CB 25/23 Q1009 NOSIG
Conditions at: UGKO (KOPITNARI , GE) observed 1400 UTC 18 August 2019
Temperature: 25.0°C (77°F)
Dewpoint: 23.0°C (73°F) [RH = 89%]
Pressure (altimeter): 29.79 inches Hg (1009.0 mb)
Winds: from the W (260 degrees) at 10 MPH (9 knots; 4.6 m/s)
Visibility: 6 or more miles (10+ km)
Ceiling: 4400 feet AGL
Clouds: broken clouds at 4400 feet AGL
Weather: TS  (thunderstorm)

METAR text: UGKO 181330Z 25011KT 9999 BKN035CB 26/23 Q1009 NOSIG
Conditions at: UGKO (KOPITNARI , GE) observed 1330 UTC 18 August 2019
Temperature: 26.0°C (79°F)
Dewpoint: 23.0°C (73°F) [RH = 84%]
Pressure (altimeter): 29.79 inches Hg (1009.0 mb)
Winds: from the WSW (250 degrees) at 13 MPH (11 knots; 5.7 m/s)
Visibility: 6 or more miles (10+ km)
Ceiling: 3500 feet AGL
Clouds: broken clouds at 3500 feet AGL
Weather: no significant weather observed at this time

METAR text: UGKO 181300Z 26012KT 9999 BKN034CB 27/22 Q1008 NOSIG
Conditions at: UGKO (KOPITNARI , GE) observed 1300 UTC 18 August 2019
Temperature: 27.0°C (81°F)
Dewpoint: 22.0°C (72°F) [RH = 74%]
Pressure (altimeter): 29.76 inches Hg (1008.0 mb)
Winds: from the W (260 degrees) at 14 MPH (12 knots; 6.2 m/s)
Visibility: 6 or more miles (10+ km)
Ceiling: 3400 feet AGL
Clouds: broken clouds at 3400 feet AGL
Weather: no significant weather observed at this time

METAR text: UGKO 181230Z 26015KT 9999 BKN034CB 27/23 Q1008 NOSIG
Conditions at: UGKO (KOPITNARI , GE) observed 1230 UTC 18 August 2019
Temperature: 27.0°C (81°F)
Dewpoint: 23.0°C (73°F) [RH = 79%]
Pressure (altimeter): 29.76 inches Hg (1008.0 mb)
Winds: from the W (260 degrees) at 17 MPH (15 knots; 7.7 m/s)
Visibility: 6 or more miles (10+ km)
Ceiling: 3400 feet AGL
Clouds: broken clouds at 3400 feet AGL
Weather: no significant weather observed at this time

METAR text: UGKO 181200Z 27014KT 9999 SCT031 28/22 Q1008 NOSIG
Conditions at: UGKO (KOPITNARI , GE) observed 1200 UTC 18 August 2019
Temperature: 28.0°C (82°F)
Dewpoint: 22.0°C (72°F) [RH = 70%]
Pressure (altimeter): 29.76 inches Hg (1008.0 mb)
Winds: from the W (270 degrees) at 16 MPH (14 knots; 7.2 m/s)
Visibility: 6 or more miles (10+ km)
Ceiling: at least 12,000 feet AGL
Clouds: scattered clouds at 3100 feet AGL
Weather: no significant weather observed at this time

METAR text: UGKO 181130Z 26015KT 9999 SCT039 28/22 Q1007 NOSIG
Conditions at: UGKO (KOPITNARI , GE) observed 1130 UTC 18 August 2019
Temperature: 28.0°C (82°F)
Dewpoint: 22.0°C (72°F) [RH = 70%]
Pressure (altimeter): 29.73 inches Hg (1007.0 mb)
Winds: from the W (260 degrees) at 17 MPH (15 knots; 7.7 m/s)
Visibility: 6 or more miles (10+ km)
Ceiling: at least 12,000 feet AGL
Clouds: scattered clouds at 3900 feet AGL
Weather: no significant weather observed at this time

METAR text: UGKO 181100Z 27014KT 240V300 9999 SCT032 29/22 Q1007 NOSIG
Conditions at: UGKO (KOPITNARI , GE) observed 1100 UTC 18 August 2019
Temperature: 29.0°C (84°F)
Dewpoint: 22.0°C (72°F) [RH = 66%]
Pressure (altimeter): 29.73 inches Hg (1007.0 mb)
Winds: from the W (270 degrees) at 16 MPH (14 knots; 7.2 m/s)
Visibility: 6 or more miles (10+ km)
Ceiling: at least 12,000 feet AGL
Clouds: scattered clouds at 3200 feet AGL
Weather: no significant weather observed at this time

METAR text: UGKO 181030Z 27012KT 9999 SCT043 29/23 Q1007 NOSIG
Conditions at: UGKO (KOPITNARI , GE) observed 1030 UTC 18 August 2019
Temperature: 29.0°C (84°F)
Dewpoint: 23.0°C (73°F) [RH = 70%]
Pressure (altimeter): 29.73 inches Hg (1007.0 mb)
Winds: from the W (270 degrees) at 14 MPH (12 knots; 6.2 m/s)
Visibility: 6 or more miles (10+ km)
Ceiling: at least 12,000 feet AGL
Clouds: scattered clouds at 4300 feet AGL
Weather: no significant weather observed at this time

METAR text: UGKO 181000Z 27012KT 240V300 9999 SCT047 29/22 Q1006 NOSIG
Conditions at: UGKO (KOPITNARI , GE) observed 1000 UTC 18 August 2019
Temperature: 29.0°C (84°F)
Dewpoint: 22.0°C (72°F) [RH = 66%]
Pressure (altimeter): 29.70 inches Hg (1006.0 mb)
Winds: from the W (270 degrees) at 14 MPH (12 knots; 6.2 m/s)
Visibility: 6 or more miles (10+ km)
Ceiling: at least 12,000 feet AGL
Clouds: scattered clouds at 4700 feet AGL
Weather: no significant weather observed at this time

METAR text: UGKO 180930Z 28010KT 240V310 9999 SCT046 29/22 Q1006 NOSIG
Conditions at: UGKO (KOPITNARI , GE) observed 0930 UTC 18 August 2019
Temperature: 29.0°C (84°F)
Dewpoint: 22.0°C (72°F) [RH = 66%]
Pressure (altimeter): 29.70 inches Hg (1006.0 mb)
Winds: from the W (280 degrees) at 12 MPH (10 knots; 5.1 m/s)
Visibility: 6 or more miles (10+ km)
Ceiling: at least 12,000 feet AGL
Clouds: scattered clouds at 4600 feet AGL
Weather: no significant weather observed at this time

METAR text: UGKO 180900Z 26009KT 240V300 9999 SCT044 28/23 Q1006 NOSIG
Conditions at: UGKO (KOPITNARI , GE) observed 0900 UTC 18 August 2019
Temperature: 28.0°C (82°F)
Dewpoint: 23.0°C (73°F) [RH = 74%]
Pressure (altimeter): 29.70 inches Hg (1006.0 mb)
Winds: from the W (260 degrees) at 10 MPH (9 knots; 4.6 m/s)
Visibility: 6 or more miles (10+ km)
Ceiling: at least 12,000 feet AGL
Clouds: scattered clouds at 4400 feet AGL
Weather: no significant weather observed at this time

METAR text: UGKO 180830Z 26007KT 230V300 9999 SCT044 28/23 Q1006 NOSIG
Conditions at: UGKO (KOPITNARI , GE) observed 0830 UTC 18 August 2019
Temperature: 28.0°C (82°F)
Dewpoint: 23.0°C (73°F) [RH = 74%]
Pressure (altimeter): 29.70 inches Hg (1006.0 mb)
Winds: from the W (260 degrees) at 8 MPH (7 knots; 3.6 m/s)
Visibility: 6 or more miles (10+ km)
Ceiling: at least 12,000 feet AGL
Clouds: scattered clouds at 4400 feet AGL
Weather: no significant weather observed at this time

METAR text: UGKO 180800Z AUTO 29007KT 260V320 CAVOK 26/22 Q1006 NOSIG
Conditions at: UGKO (KOPITNARI , GE) observed 0800 UTC 18 August 2019
Temperature: 26.0°C (79°F)
Dewpoint: 22.0°C (72°F) [RH = 79%]
Pressure (altimeter): 29.70 inches Hg (1006.0 mb)
Winds: from the WNW (290 degrees) at 8 MPH (7 knots; 3.6 m/s)
Visibility: 6 or more miles (10+ km)
Ceiling: ceiling and visibility are OK
Clouds: unknown
Weather: no significant weather observed at this time

METAR text: UGKO 180730Z 29004KT 230V010 9999 BKN043 25/22 Q1006 NOSIG
Conditions at: UGKO (KOPITNARI , GE) observed 0730 UTC 18 August 2019
Temperature: 25.0°C (77°F)
Dewpoint: 22.0°C (72°F) [RH = 83%]
Pressure (altimeter): 29.70 inches Hg (1006.0 mb)
Winds: from the WNW (290 degrees) at 5 MPH (4 knots; 2.1 m/s)
Visibility: 6 or more miles (10+ km)
Ceiling: 4300 feet AGL
Clouds: broken clouds at 4300 feet AGL
Weather: no significant weather observed at this time

METAR text: UGKO 180700Z VRB02KT 9999 BKN045 25/22 Q1006 NOSIG
Conditions at: UGKO (KOPITNARI , GE) observed 0700 UTC 18 August 2019
Temperature: 25.0°C (77°F)
Dewpoint: 22.0°C (72°F) [RH = 83%]
Pressure (altimeter): 29.70 inches Hg (1006.0 mb)
Winds: variable direction winds at 2 MPH (2 knots; 1.0 m/s)
Visibility: 6 or more miles (10+ km)
Ceiling: 4500 feet AGL
Clouds: broken clouds at 4500 feet AGL
Weather: no significant weather observed at this time

METAR text: UGKO 180630Z VRB02KT 9999 BKN039 24/22 Q1006 NOSIG
Conditions at: UGKO (KOPITNARI , GE) observed 0630 UTC 18 August 2019
Temperature: 24.0°C (75°F)
Dewpoint: 22.0°C (72°F) [RH = 89%]
Pressure (altimeter): 29.70 inches Hg (1006.0 mb)
Winds: variable direction winds at 2 MPH (2 knots; 1.0 m/s)
Visibility: 6 or more miles (10+ km)
Ceiling: 3900 feet AGL
Clouds: broken clouds at 3900 feet AGL
Weather: no significant weather observed at this time

METAR text: UGKO 180600Z 11003KT 060V160 9999 BKN038 24/22 Q1007 NOSIG
Conditions at: UGKO (KOPITNARI , GE) observed 0600 UTC 18 August 2019
Temperature: 24.0°C (75°F)
Dewpoint: 22.0°C (72°F) [RH = 89%]
Pressure (altimeter): 29.73 inches Hg (1007.0 mb)
Winds: from the ESE (110 degrees) at 3 MPH (3 knots; 1.5 m/s)
Visibility: 6 or more miles (10+ km)
Ceiling: 3800 feet AGL
Clouds: broken clouds at 3800 feet AGL
Weather: no significant weather observed at this time

METAR text: UGKO 180530Z 09003KT 060V150 9999 BKN038 23/22 Q1007 NOSIG
Conditions at: UGKO (KOPITNARI , GE) observed 0530 UTC 18 August 2019
Temperature: 23.0°C (73°F)
Dewpoint: 22.0°C (72°F) [RH = 94%]
Pressure (altimeter): 29.73 inches Hg (1007.0 mb)
Winds: from the E (90 degrees) at 3 MPH (3 knots; 1.5 m/s)
Visibility: 6 or more miles (10+ km)
Ceiling: 3800 feet AGL
Clouds: broken clouds at 3800 feet AGL
Weather: no significant weather observed at this time

METAR text: UGKO 180500Z 11005KT 9999 SCT045 23/22 Q1007 NOSIG
Conditions at: UGKO (KOPITNARI , GE) observed 0500 UTC 18 August 2019
Temperature: 23.0°C (73°F)
Dewpoint: 22.0°C (72°F) [RH = 94%]
Pressure (altimeter): 29.73 inches Hg (1007.0 mb)
Winds: from the ESE (110 degrees) at 6 MPH (5 knots; 2.6 m/s)
Visibility: 6 or more miles (10+ km)
Ceiling: at least 12,000 feet AGL
Clouds: scattered clouds at 4500 feet AGL
Weather: no significant weather observed at this time

METAR text: UGKO 180430Z 09004KT 060V120 9999 SCT047 22/22 Q1007 NOSIG
Conditions at: UGKO (KOPITNARI , GE) observed 0430 UTC 18 August 2019
Temperature: 22.0°C (72°F)
Dewpoint: 22.0°C (72°F) [RH = 100%]
Pressure (altimeter): 29.73 inches Hg (1007.0 mb)
Winds: from the E (90 degrees) at 5 MPH (4 knots; 2.1 m/s)
Visibility: 6 or more miles (10+ km)
Ceiling: at least 12,000 feet AGL
Clouds: scattered clouds at 4700 feet AGL
Weather: no significant weather observed at this time

METAR text: UGKO 180400Z 08003KT 050V110 7000 SCT044 21/20 Q1007 NOSIG
Conditions at: UGKO (KOPITNARI , GE) observed 0400 UTC 18 August 2019
Temperature: 21.0°C (70°F)
Dewpoint: 20.0°C (68°F) [RH = 94%]
Pressure (altimeter): 29.73 inches Hg (1007.0 mb)
Winds: from the E (80 degrees) at 3 MPH (3 knots; 1.5 m/s)
Visibility: 4 miles ( 7 km)
Ceiling: at least 12,000 feet AGL
Clouds: scattered clouds at 4400 feet AGL
Weather: no significant weather observed at this time

METAR text: UGKO 180330Z VRB02KT 4000 BR SCT044 21/21 Q1007 NOSIG
Conditions at: UGKO (KOPITNARI , GE) observed 0330 UTC 18 August 2019
Temperature: 21.0°C (70°F)
Dewpoint: 21.0°C (70°F) [RH = 100%]
Pressure (altimeter): 29.73 inches Hg (1007.0 mb)
Winds: variable direction winds at 2 MPH (2 knots; 1.0 m/s)
Visibility: 2.49 miles (4.01 km)
Ceiling: at least 12,000 feet AGL
Clouds: scattered clouds at 4400 feet AGL
Weather: BR  (mist)

METAR text: UGKO 180300Z 09003KT 2100 BCFG BR SCT039 20/20 Q1007 NOSIG
Conditions at: UGKO (KOPITNARI , GE) observed 0300 UTC 18 August 2019
Temperature: 20.0°C (68°F)
Dewpoint: 20.0°C (68°F) [RH = 100%]
Pressure (altimeter): 29.73 inches Hg (1007.0 mb)
Winds: from the E (90 degrees) at 3 MPH (3 knots; 1.5 m/s)
Visibility: 1.30 miles (2.09 km)
Ceiling: at least 12,000 feet AGL
Clouds: scattered clouds at 3900 feet AGL
Weather: BCFG BR  (patches of fog, mist)

METAR text: UGKO 180230Z VRB02KT 1400 R07/1500N FG SCT022 21/21 Q1008 NOSIG
Conditions at: UGKO (KOPITNARI , GE) observed 0230 UTC 18 August 2019
Temperature: 21.0°C (70°F)
Dewpoint: 21.0°C (70°F) [RH = 100%]
Pressure (altimeter): 29.76 inches Hg (1008.0 mb)
Winds: variable direction winds at 2 MPH (2 knots; 1.0 m/s)
Visibility: 0.87 miles (1.40 km)
Ceiling: at least 12,000 feet AGL
Clouds: scattered clouds at 2200 feet AGL
Weather: FG  (fog)

METAR text: UGKO 180200Z AUTO 25002KT 0200 R07/0450D FG FEW022/// 20/21 Q1008 NOSIG
Conditions at: UGKO (KOPITNARI , GE) observed 0200 UTC 18 August 2019
Temperature: 20.0°C (68°F)
Dewpoint: 21.0°C (70°F) [RH = 106%]
Pressure (altimeter): 29.76 inches Hg (1008.0 mb)
Winds: from the WSW (250 degrees) at 2 MPH (2 knots; 1.0 m/s)
Visibility: 0.12 miles (0.19 km)
Ceiling: at least 12,000 feet AGL
Clouds: few clouds at 2200 feet AGL
Weather: FG  (fog)

METAR text: UGKO 180130Z VRB01KT 3000 BCFG BR SCT011 BKN044 21/21 Q1008 NOSIG
Conditions at: UGKO (KOPITNARI , GE) observed 0130 UTC 18 August 2019
Temperature: 21.0°C (70°F)
Dewpoint: 21.0°C (70°F) [RH = 100%]
Pressure (altimeter): 29.76 inches Hg (1008.0 mb)
Winds: variable direction winds at 1 MPH (1 knots; 0.5 m/s)
Visibility: 1.86 miles (2.99 km)
Ceiling: 4400 feet AGL
Clouds: scattered clouds at 1100 feet AGL
broken clouds at 4400 feet AGL
Weather: BCFG BR  (patches of fog, mist)

METAR text: UGKO 180100Z VRB03KT 3000 BCFG BR SCT011 BKN044 21/21 Q1008 NOSIG
Conditions at: UGKO (KOPITNARI , GE) observed 0100 UTC 18 August 2019
Temperature: 21.0°C (70°F)
Dewpoint: 21.0°C (70°F) [RH = 100%]
Pressure (altimeter): 29.76 inches Hg (1008.0 mb)
Winds: variable direction winds at 3 MPH (3 knots; 1.5 m/s)
Visibility: 1.86 miles (2.99 km)
Ceiling: 4400 feet AGL
Clouds: scattered clouds at 1100 feet AGL
broken clouds at 4400 feet AGL
Weather: BCFG BR  (patches of fog, mist)

METAR text: UGKO 180030Z VRB01KT 3000 BCFG BR SCT011 BKN049 21/21 Q1008 NOSIG
Conditions at: UGKO (KOPITNARI , GE) observed 0030 UTC 18 August 2019
Temperature: 21.0°C (70°F)
Dewpoint: 21.0°C (70°F) [RH = 100%]
Pressure (altimeter): 29.76 inches Hg (1008.0 mb)
Winds: variable direction winds at 1 MPH (1 knots; 0.5 m/s)
Visibility: 1.86 miles (2.99 km)
Ceiling: 4900 feet AGL
Clouds: scattered clouds at 1100 feet AGL
broken clouds at 4900 feet AGL
Weather: BCFG BR  (patches of fog, mist)

METAR text: UGKO 180000Z VRB02KT 2500 BCFG BR SCT030 BKN049 21/21 Q1008 NOSIG
Conditions at: UGKO (KOPITNARI , GE) observed 0000 UTC 18 August 2019
Temperature: 21.0°C (70°F)
Dewpoint: 21.0°C (70°F) [RH = 100%]
Pressure (altimeter): 29.76 inches Hg (1008.0 mb)
Winds: variable direction winds at 2 MPH (2 knots; 1.0 m/s)
Visibility: 1.55 miles (2.49 km)
Ceiling: 4900 feet AGL
Clouds: scattered clouds at 3000 feet AGL
broken clouds at 4900 feet AGL
Weather: BCFG BR  (patches of fog, mist)

METAR text: UGKO 172330Z VRB02KT 5000 BR SCT030 OVC045 21/21 Q1008 NOSIG
Conditions at: UGKO (KOPITNARI , GE) observed 2330 UTC 17 August 2019
Temperature: 21.0°C (70°F)
Dewpoint: 21.0°C (70°F) [RH = 100%]
Pressure (altimeter): 29.76 inches Hg (1008.0 mb)
Winds: variable direction winds at 2 MPH (2 knots; 1.0 m/s)
Visibility: 3 miles ( 5 km)
Ceiling: 4500 feet AGL
Clouds: scattered clouds at 3000 feet AGL
overcast cloud deck at 4500 feet AGL
Weather: BR  (mist)

METAR text: UGKO 172300Z 01004KT 5000 BR SCT032 OVC046 22/22 Q1008 NOSIG
Conditions at: UGKO (KOPITNARI , GE) observed 2300 UTC 17 August 2019
Temperature: 22.0°C (72°F)
Dewpoint: 22.0°C (72°F) [RH = 100%]
Pressure (altimeter): 29.76 inches Hg (1008.0 mb)
Winds: from the N (10 degrees) at 5 MPH (4 knots; 2.1 m/s)
Visibility: 3 miles ( 5 km)
Ceiling: 4600 feet AGL
Clouds: scattered clouds at 3200 feet AGL
overcast cloud deck at 4600 feet AGL
Weather: BR  (mist)

METAR text: UGKO 172230Z VRB04KT 5000 BR SCT028 BKN049 22/22 Q1008 NOSIG
Conditions at: UGKO (KOPITNARI , GE) observed 2230 UTC 17 August 2019
Temperature: 22.0°C (72°F)
Dewpoint: 22.0°C (72°F) [RH = 100%]
Pressure (altimeter): 29.76 inches Hg (1008.0 mb)
Winds: variable direction winds at 5 MPH (4 knots; 2.1 m/s)
Visibility: 3 miles ( 5 km)
Ceiling: 4900 feet AGL
Clouds: scattered clouds at 2800 feet AGL
broken clouds at 4900 feet AGL
Weather: BR  (mist)

METAR text: UGKO 172200Z 07003KT 5000 BR SCT026 BKN048 22/22 Q1009 NOSIG
Conditions at: UGKO (KOPITNARI , GE) observed 2200 UTC 17 August 2019
Temperature: 22.0°C (72°F)
Dewpoint: 22.0°C (72°F) [RH = 100%]
Pressure (altimeter): 29.79 inches Hg (1009.0 mb)
Winds: from the ENE (70 degrees) at 3 MPH (3 knots; 1.5 m/s)
Visibility: 3 miles ( 5 km)
Ceiling: 4800 feet AGL
Clouds: scattered clouds at 2600 feet AGL
broken clouds at 4800 feet AGL
Weather: BR  (mist)

METAR text: UGKO 172130Z 05004KT 5000 BR SCT024CB OVC048 22/22 Q1009 NOSIG
Conditions at: UGKO (KOPITNARI , GE) observed 2130 UTC 17 August 2019
Temperature: 22.0°C (72°F)
Dewpoint: 22.0°C (72°F) [RH = 100%]
Pressure (altimeter): 29.79 inches Hg (1009.0 mb)
Winds: from the NE (50 degrees) at 5 MPH (4 knots; 2.1 m/s)
Visibility: 3 miles ( 5 km)
Ceiling: 4800 feet AGL
Clouds: scattered clouds at 2400 feet AGL
overcast cloud deck at 4800 feet AGL
Weather: BR  (mist)

METAR text: UGKO 172100Z VRB02KT 4000 BR SCT035CB OVC048 22/22 Q1009 NOSIG
Conditions at: UGKO (KOPITNARI , GE) observed 2100 UTC 17 August 2019
Temperature: 22.0°C (72°F)
Dewpoint: 22.0°C (72°F) [RH = 100%]
Pressure (altimeter): 29.79 inches Hg (1009.0 mb)
Winds: variable direction winds at 2 MPH (2 knots; 1.0 m/s)
Visibility: 2.49 miles (4.01 km)
Ceiling: 4800 feet AGL
Clouds: scattered clouds at 3500 feet AGL
overcast cloud deck at 4800 feet AGL
Weather: BR  (mist)

METAR text: UGKO 172030Z VRB02KT 5000 BR SCT031CB OVC047 22/22 Q1009 NOSIG
Conditions at: UGKO (KOPITNARI , GE) observed 2030 UTC 17 August 2019
Temperature: 22.0°C (72°F)
Dewpoint: 22.0°C (72°F) [RH = 100%]
Pressure (altimeter): 29.79 inches Hg (1009.0 mb)
Winds: variable direction winds at 2 MPH (2 knots; 1.0 m/s)
Visibility: 3 miles ( 5 km)
Ceiling: 4700 feet AGL
Clouds: scattered clouds at 3100 feet AGL
overcast cloud deck at 4700 feet AGL
Weather: BR  (mist)

METAR text: UGKO 172000Z VRB02KT 4500 BR SCT033CB OVC044 22/22 Q1009 NOSIG
Conditions at: UGKO (KOPITNARI , GE) observed 2000 UTC 17 August 2019
Temperature: 22.0°C (72°F)
Dewpoint: 22.0°C (72°F) [RH = 100%]
Pressure (altimeter): 29.79 inches Hg (1009.0 mb)
Winds: variable direction winds at 2 MPH (2 knots; 1.0 m/s)
Visibility: 2.80 miles (4.51 km)
Ceiling: 4400 feet AGL
Clouds: scattered clouds at 3300 feet AGL
overcast cloud deck at 4400 feet AGL
Weather: BR  (mist)

METAR text: UGKO 171930Z 03003KT 330V060 5000 BR SCT033CB OVC044 22/22 Q1009 NOSIG
Conditions at: UGKO (KOPITNARI , GE) observed 1930 UTC 17 August 2019
Temperature: 22.0°C (72°F)
Dewpoint: 22.0°C (72°F) [RH = 100%]
Pressure (altimeter): 29.79 inches Hg (1009.0 mb)
Winds: from the NNE (30 degrees) at 3 MPH (3 knots; 1.5 m/s)
Visibility: 3 miles ( 5 km)
Ceiling: 4400 feet AGL
Clouds: scattered clouds at 3300 feet AGL
overcast cloud deck at 4400 feet AGL
Weather: BR  (mist)

METAR text: UGKO 171900Z 06003KT 5000 BR SCT024CB OVC044 22/22 Q1010 NOSIG
Conditions at: UGKO (KOPITNARI , GE) observed 1900 UTC 17 August 2019
Temperature: 22.0°C (72°F)
Dewpoint: 22.0°C (72°F) [RH = 100%]
Pressure (altimeter): 29.82 inches Hg (1010.0 mb)
Winds: from the ENE (60 degrees) at 3 MPH (3 knots; 1.5 m/s)
Visibility: 3 miles ( 5 km)
Ceiling: 4400 feet AGL
Clouds: scattered clouds at 2400 feet AGL
overcast cloud deck at 4400 feet AGL
Weather: BR  (mist)

METAR text: UGKO 171830Z VRB02KT 5000 BR SCT016CB OVC041 22/22 Q1010 NOSIG
Conditions at: UGKO (KOPITNARI , GE) observed 1830 UTC 17 August 2019
Temperature: 22.0°C (72°F)
Dewpoint: 22.0°C (72°F) [RH = 100%]
Pressure (altimeter): 29.82 inches Hg (1010.0 mb)
Winds: variable direction winds at 2 MPH (2 knots; 1.0 m/s)
Visibility: 3 miles ( 5 km)
Ceiling: 4100 feet AGL
Clouds: scattered clouds at 1600 feet AGL
overcast cloud deck at 4100 feet AGL
Weather: BR  (mist)

METAR text: UGKO 171800Z VRB02KT 5000 BR SCT024CB OVC044 22/22 Q1010 NOSIG
Conditions at: UGKO (KOPITNARI , GE) observed 1800 UTC 17 August 2019
Temperature: 22.0°C (72°F)
Dewpoint: 22.0°C (72°F) [RH = 100%]
Pressure (altimeter): 29.82 inches Hg (1010.0 mb)
Winds: variable direction winds at 2 MPH (2 knots; 1.0 m/s)
Visibility: 3 miles ( 5 km)
Ceiling: 4400 feet AGL
Clouds: scattered clouds at 2400 feet AGL
overcast cloud deck at 4400 feet AGL
Weather: BR  (mist)

METAR text: UGKO 171730Z 04004KT 280V050 9999 SCT024CB OVC044 22/21 Q1010 NOSIG
Conditions at: UGKO (KOPITNARI , GE) observed 1730 UTC 17 August 2019
Temperature: 22.0°C (72°F)
Dewpoint: 21.0°C (70°F) [RH = 94%]
Pressure (altimeter): 29.82 inches Hg (1010.0 mb)
Winds: from the NE (40 degrees) at 5 MPH (4 knots; 2.1 m/s)
Visibility: 6 or more miles (10+ km)
Ceiling: 4400 feet AGL
Clouds: scattered clouds at 2400 feet AGL
overcast cloud deck at 4400 feet AGL
Weather: no significant weather observed at this time

METAR text: UGKO 171700Z 08003KT 030V100 5000 BR SCT019CB OVC044 22/22 Q1010 NOSIG
Conditions at: UGKO (KOPITNARI , GE) observed 1700 UTC 17 August 2019
Temperature: 22.0°C (72°F)
Dewpoint: 22.0°C (72°F) [RH = 100%]
Pressure (altimeter): 29.82 inches Hg (1010.0 mb)
Winds: from the E (80 degrees) at 3 MPH (3 knots; 1.5 m/s)
Visibility: 3 miles ( 5 km)
Ceiling: 4400 feet AGL
Clouds: scattered clouds at 1900 feet AGL
overcast cloud deck at 4400 feet AGL
Weather: BR  (mist)

METAR text: UGKO 171630Z 13003KT 090V220 5000 BR SCT030CB OVC044 22/22 Q1010 NOSIG
Conditions at: UGKO (KOPITNARI , GE) observed 1630 UTC 17 August 2019
Temperature: 22.0°C (72°F)
Dewpoint: 22.0°C (72°F) [RH = 100%]
Pressure (altimeter): 29.82 inches Hg (1010.0 mb)
Winds: from the SE (130 degrees) at 3 MPH (3 knots; 1.5 m/s)
Visibility: 3 miles ( 5 km)
Ceiling: 4400 feet AGL
Clouds: scattered clouds at 3000 feet AGL
overcast cloud deck at 4400 feet AGL
Weather: BR  (mist)

METAR text: UGKO 171600Z 36007KT 5000 BR SCT028CB OVC044 22/22 Q1010 NOSIG
Conditions at: UGKO (KOPITNARI , GE) observed 1600 UTC 17 August 2019
Temperature: 22.0°C (72°F)
Dewpoint: 22.0°C (72°F) [RH = 100%]
Pressure (altimeter): 29.82 inches Hg (1010.0 mb)
Winds: from the N (360 degrees) at 8 MPH (7 knots; 3.6 m/s)
Visibility: 3 miles ( 5 km)
Ceiling: 4400 feet AGL
Clouds: scattered clouds at 2800 feet AGL
overcast cloud deck at 4400 feet AGL
Weather: BR  (mist)

METAR text: UGKO 171530Z VRB03KT 5000 BR SCT026CB OVC044 22/22 Q1010 NOSIG
Conditions at: UGKO (KOPITNARI , GE) observed 1530 UTC 17 August 2019
Temperature: 22.0°C (72°F)
Dewpoint: 22.0°C (72°F) [RH = 100%]
Pressure (altimeter): 29.82 inches Hg (1010.0 mb)
Winds: variable direction winds at 3 MPH (3 knots; 1.5 m/s)
Visibility: 3 miles ( 5 km)
Ceiling: 4400 feet AGL
Clouds: scattered clouds at 2600 feet AGL
overcast cloud deck at 4400 feet AGL
Weather: BR  (mist)

Forecast for: UGKO (KOPITNARI , GE)
Text: TAF UGKO 182300Z 1900/1924 VRB02KT 9999 SCT035 TX29/1910Z TN20/1902Z
Forecast period: 0000 UTC 19 August 2019 to 0000 UTC 20 August 2019
Forecast type: FROM: standard forecast or significant change
Winds: variable direction winds at 2 MPH (2 knots; 1.0 m/s)
Visibility: 6 or more miles 10+ km)
Ceiling: at least 12,000 feet AGL
Clouds: scattered clouds at 3500 feet AGL
Weather: no significant weather forecast for this period
Text: TEMPO 1900/1904 2000 BCFG BR BKN015
Forecast period: 0000 to 0400 UTC 19 August 2019
Forecast type: TEMPORARY: The following changes expected for less than half the time period
Visibility: 1.24 miles (2.00 km)
Ceiling: 1500 feet AGL
Clouds: broken clouds at 1500 feet AGL
Weather: BCFG BR  (patches of fog, mist)
Text: TEMPO 1910/1914 25012KT
Forecast period: 1000 to 1400 UTC 19 August 2019
Forecast type: TEMPORARY: The following changes expected for less than half the time period
Winds: from the WSW (250 degrees) at 14 MPH (12 knots; 6.2 m/s)
Visibility: missing
Ceiling: unknown
Clouds: missing
Weather: no significant weather forecast for this period